Terminal Aerodrome Forecast
Issued by NWS

Home | Current Version | Previous Version | Text Only | Print | Product List | Glossary On
Versions: 1 2 3 4 5 6 7 8 9 10 11 12 13 14 15 16 17 18 19 20 21 22 23 24 25 26
000
FTUS45 KFGZ 302108 AAA
TAFGCN
TAF AMD
KGCN 302108Z 3021/0118 20005KT P6SM -SHRA SCT015 OVC030
      TEMPO 3021/3023 3SM -TSRA OVC020CB
     FM010200 07005KT P6SM VCSH BKN020 OVC040
     FM011200 06005KT P6SM SCT020 OVC040=

USA.gov is the U.S. government's official web portal to all federal, state and local government web resources and services.